createdAt,value
2022-12-12T00:01:27.115Z,1.95
2022-12-12T00:03:54.421Z,3.15
2022-12-12T00:06:22.563Z,2.55
2022-12-12T00:08:49.920Z,2.28
2022-12-12T00:11:18.572Z,2.50
2022-12-12T00:13:45.450Z,1.63
2022-12-12T00:16:12.873Z,2.10
2022-12-12T00:18:40.673Z,1.60
2022-12-12T00:21:15.044Z,1.88
2022-12-12T00:23:42.157Z,2.03
2022-12-12T00:26:19.312Z,2.05
2022-12-12T00:28:46.538Z,3.00
2022-12-12T00:31:13.572Z,2.17
2022-12-12T00:33:40.404Z,2.85
2022-12-12T00:36:07.701Z,1.52
2022-12-12T00:38:34.711Z,0.95
2022-12-12T00:41:02.331Z,1.50
2022-12-12T00:43:29.122Z,4.43
2022-12-12T00:46:02.309Z,3.47
2022-12-12T00:48:29.640Z,1.95
2022-12-12T00:50:57.371Z,2.05
2022-12-12T00:53:25.003Z,2.22
2022-12-12T00:55:59.204Z,1.70
2022-12-12T00:58:26.802Z,2.15
2022-12-12T01:00:54.122Z,1.98
2022-12-12T01:03:21.811Z,2.05
2022-12-12T01:05:48.822Z,3.45
2022-12-12T01:08:15.626Z,1.33
2022-12-12T01:10:42.564Z,1.42
2022-12-12T01:13:09.278Z,2.20
2022-12-12T01:15:36.050Z,3.28
2022-12-12T01:18:02.845Z,2.45
2022-12-12T01:20:29.724Z,2.85
2022-12-12T01:22:56.916Z,2.85
2022-12-12T01:25:23.777Z,2.38
2022-12-12T01:27:50.827Z,1.52
2022-12-12T01:30:21.836Z,1.52
2022-12-12T01:32:49.027Z,1.60
2022-12-12T01:35:16.007Z,1.63
2022-12-12T01:37:43.065Z,3.88
2022-12-12T01:40:20.344Z,1.80
2022-12-12T01:42:47.889Z,1.52
2022-12-12T01:45:58.421Z,1.33
2022-12-12T01:48:46.295Z,1.15
2022-12-12T01:51:21.034Z,4.00
2022-12-12T01:53:50.889Z,1.45
2022-12-12T01:56:20.785Z,2.22
2022-12-12T01:59:09.432Z,2.45
2022-12-12T02:01:37.149Z,2.60
2022-12-12T02:04:05.581Z,2.45
2022-12-12T02:06:32.405Z,1.58
2022-12-12T02:09:05.678Z,1.63
2022-12-12T02:11:35.341Z,1.92
2022-12-12T02:14:03.233Z,1.38
2022-12-12T02:17:05.061Z,2.38
2022-12-12T02:20:02.241Z,1.15
2022-12-12T02:23:09.057Z,1.10
2022-12-12T02:26:09.600Z,1.10
2022-12-12T02:28:57.685Z,1.85
2022-12-12T02:32:06.225Z,1.30
2022-12-12T02:35:17.993Z,2.05
2022-12-12T02:37:58.626Z,2.07
2022-12-12T02:40:35.943Z,2.67
2022-12-12T02:43:36.485Z,1.55
2022-12-12T02:46:13.565Z,1.35
2022-12-12T02:49:06.030Z,1.88
2022-12-12T02:51:34.620Z,1.08
2022-12-12T02:54:14.313Z,1.58
2022-12-12T02:56:58.177Z,1.30
2022-12-12T02:59:56.155Z,3.05
2022-12-12T03:03:37.525Z,2.20
2022-12-12T03:06:51.564Z,2.38
2022-12-12T03:09:56.653Z,2.05
2022-12-12T03:12:51.638Z,1.30
2022-12-12T03:15:27.722Z,1.73
2022-12-12T03:18:10.369Z,1.23
2022-12-12T03:20:50.805Z,1.67
2022-12-12T03:23:34.934Z,1.20
2022-12-12T03:26:07.317Z,1.90
2022-12-12T03:28:45.694Z,1.45
2022-12-12T03:31:15.617Z,2.10
2022-12-12T03:33:52.078Z,1.27
2022-12-12T03:37:17.247Z,1.65
2022-12-12T03:39:54.469Z,1.20
2022-12-12T03:42:46.653Z,1.10
2022-12-12T03:45:46.120Z,2.30
2022-12-12T03:48:27.101Z,2.20
2022-12-12T03:51:05.821Z,1.73
2022-12-12T03:53:40.045Z,1.00
2022-12-12T03:56:45.713Z,1.13
2022-12-12T03:59:27.616Z,1.70
2022-12-12T04:04:56.949Z,1.40
2022-12-12T04:07:33.480Z,2.60
2022-12-12T04:10:19.204Z,1.23
2022-12-12T04:13:20.994Z,1.25
2022-12-12T04:15:57.994Z,2.70
2022-12-12T04:18:52.378Z,2.03
2022-12-12T04:21:55.062Z,1.30
2022-12-12T04:24:59.046Z,1.73
2022-12-12T04:27:43.862Z,1.35
2022-12-12T04:30:14.673Z,1.27
2022-12-12T04:33:02.385Z,1.92
2022-12-12T04:35:41.875Z,1.55
2022-12-12T04:38:21.454Z,1.20
2022-12-12T04:40:54.677Z,1.85
2022-12-12T04:43:29.127Z,1.10
2022-12-12T04:46:00.513Z,1.00
2022-12-12T04:48:38.981Z,1.45
2022-12-12T04:51:10.698Z,1.80
2022-12-12T04:53:48.278Z,2.25
2022-12-12T04:56:20.310Z,2.45
2022-12-12T05:01:29.274Z,2.00
2022-12-12T05:06:46.456Z,1.10
2022-12-12T05:09:16.771Z,3.63
2022-12-12T05:11:43.940Z,1.20
2022-12-12T05:14:11.798Z,1.58
2022-12-12T05:16:45.320Z,1.73
2022-12-12T05:19:12.141Z,2.08
2022-12-12T05:21:38.914Z,1.20
2022-12-12T05:24:06.076Z,2.17
2022-12-12T05:26:35.584Z,1.20
2022-12-12T05:29:07.483Z,1.77
2022-12-12T05:31:35.097Z,1.88
2022-12-12T05:34:02.203Z,1.17
2022-12-12T05:36:29.086Z,1.90
2022-12-12T05:38:55.872Z,3.00
2022-12-12T05:41:22.828Z,0.90
2022-12-12T05:43:49.614Z,3.20
2022-12-12T05:46:16.426Z,2.38
2022-12-12T05:48:44.548Z,1.67
2022-12-12T05:51:11.281Z,1.15
2022-12-12T05:53:42.882Z,2.25
2022-12-12T05:58:39.674Z,1.63
2022-12-12T06:01:07.313Z,3.13
2022-12-12T06:03:34.198Z,3.22
2022-12-12T06:06:01.642Z,3.38
2022-12-12T06:08:28.716Z,1.85
2022-12-12T06:10:55.504Z,1.70
2022-12-12T06:13:22.335Z,1.73
2022-12-12T06:15:49.186Z,1.65
2022-12-12T06:18:16.186Z,1.52
2022-12-12T06:20:43.122Z,1.20
2022-12-12T06:23:09.966Z,1.08
2022-12-12T06:25:36.732Z,1.83
2022-12-12T06:28:03.484Z,2.58
2022-12-12T06:30:30.317Z,1.25
2022-12-12T06:32:57.189Z,1.35
2022-12-12T06:35:23.954Z,1.10
2022-12-12T06:37:50.670Z,1.02
2022-12-12T06:40:17.572Z,1.23
2022-12-12T06:42:48.156Z,1.30
2022-12-12T06:45:16.132Z,1.57
2022-12-12T06:47:43.070Z,1.35
2022-12-12T06:50:09.935Z,2.75
2022-12-12T06:52:36.926Z,1.17
2022-12-12T06:55:04.004Z,2.03
2022-12-12T06:57:31.127Z,1.77
2022-12-12T06:59:58.849Z,2.35
2022-12-12T07:02:29.495Z,1.80
2022-12-12T07:04:57.663Z,0.95
2022-12-12T07:07:24.590Z,2.17
2022-12-12T07:09:51.382Z,1.83
2022-12-12T07:12:18.264Z,1.73
2022-12-12T07:14:45.040Z,1.30
2022-12-12T07:17:11.784Z,2.60
2022-12-12T07:19:38.551Z,1.23
2022-12-12T07:22:09.834Z,2.03
2022-12-12T07:24:37.672Z,2.92
2022-12-12T07:27:04.899Z,1.55
2022-12-12T07:29:31.630Z,1.63
2022-12-12T07:31:58.684Z,1.63
2022-12-12T07:34:25.473Z,2.55
2022-12-12T07:36:52.221Z,2.30
2022-12-12T07:39:21.120Z,2.90
2022-12-12T07:41:48.398Z,2.42
2022-12-12T07:44:16.635Z,1.58
2022-12-12T07:46:43.492Z,2.00
2022-12-12T07:49:10.301Z,1.83
2022-12-12T07:51:40.984Z,1.10
2022-12-12T07:54:10.944Z,1.58
2022-12-12T07:56:37.932Z,1.88
2022-12-12T07:59:04.690Z,1.00
2022-12-12T08:01:31.513Z,1.40
2022-12-12T08:03:59.384Z,2.28
2022-12-12T08:06:26.213Z,1.58
2022-12-12T08:08:53.694Z,2.55
2022-12-12T08:11:23.633Z,1.38
2022-12-12T08:13:51.793Z,2.13
2022-12-12T08:16:30.012Z,2.45
2022-12-12T08:18:58.740Z,3.25
2022-12-12T08:21:27.145Z,2.70
2022-12-12T08:24:02.479Z,2.72
2022-12-12T08:26:30.836Z,1.85
2022-12-12T08:28:58.163Z,2.28
2022-12-12T08:31:25.730Z,1.52
2022-12-12T08:33:53.472Z,4.55
2022-12-12T08:36:26.219Z,1.83
2022-12-12T08:38:53.074Z,2.45
2022-12-12T08:41:20.172Z,2.13
2022-12-12T08:43:47.376Z,3.08
2022-12-12T08:46:18.073Z,2.33
2022-12-12T08:48:46.746Z,1.63
2022-12-12T08:51:16.538Z,2.45
2022-12-12T08:53:48.521Z,2.13
2022-12-12T08:56:16.930Z,1.30
2022-12-12T08:58:44.094Z,1.55
2022-12-12T09:01:27.843Z,2.38
2022-12-12T09:03:57.234Z,1.52
2022-12-12T09:06:25.192Z,2.95
2022-12-12T09:08:52.512Z,4.15
2022-12-12T09:11:19.587Z,4.00
2022-12-12T09:13:46.399Z,5.82
2022-12-12T09:16:13.789Z,3.08
2022-12-12T09:18:47.764Z,6.97
2022-12-12T09:21:15.794Z,4.95
2022-12-12T09:23:42.554Z,3.83
2022-12-12T09:26:10.114Z,3.45
2022-12-12T09:28:37.057Z,5.07
2022-12-12T09:31:06.561Z,6.03
2022-12-12T09:33:33.462Z,3.05
2022-12-12T09:36:03.070Z,5.13
2022-12-12T09:38:30.064Z,4.70
2022-12-12T09:41:10.152Z,5.30
2022-12-12T09:43:59.458Z,6.10
2022-12-12T09:46:44.913Z,4.15
2022-12-12T09:49:43.420Z,4.68
2022-12-12T09:52:16.746Z,3.50
2022-12-12T09:54:43.929Z,6.18
2022-12-12T09:57:44.245Z,6.43
2022-12-12T10:00:14.552Z,5.53
2022-12-12T10:02:56.331Z,8.52
2022-12-12T10:06:35.449Z,5.03
2022-12-12T10:09:20.178Z,4.32
2022-12-12T10:11:50.832Z,4.38
2022-12-12T10:14:51.815Z,4.25
2022-12-12T10:17:27.893Z,3.78
2022-12-12T10:19:59.870Z,4.32
2022-12-12T10:23:07.742Z,5.97
2022-12-12T10:25:43.960Z,4.07
2022-12-12T10:28:15.665Z,3.85
2022-12-12T10:31:14.780Z,3.30
2022-12-12T10:34:05.438Z,4.20
2022-12-12T10:36:56.793Z,5.07
2022-12-12T10:39:47.594Z,4.70
2022-12-12T10:42:14.217Z,5.32
2022-12-12T10:44:55.485Z,4.22
2022-12-12T10:47:22.409Z,4.50
2022-12-12T10:49:51.859Z,5.03
2022-12-12T10:52:22.335Z,5.18
2022-12-12T10:54:56.657Z,7.50
2022-12-12T10:57:26.663Z,5.38
2022-12-12T10:59:58.735Z,5.78
2022-12-12T11:02:37.263Z,5.07
2022-12-12T11:05:24.562Z,5.50
2022-12-12T11:08:10.357Z,5.72
2022-12-12T11:10:38.239Z,6.82
2022-12-12T11:13:10.874Z,5.65
2022-12-12T11:15:46.252Z,6.90
2022-12-12T11:18:17.587Z,9.07
2022-12-12T11:21:07.177Z,7.60
2022-12-12T11:23:36.887Z,4.93
2022-12-12T11:26:12.620Z,5.00
2022-12-12T11:28:40.958Z,6.22
2022-12-12T11:31:14.541Z,5.53
2022-12-12T11:33:49.090Z,6.55
2022-12-12T11:36:20.417Z,7.32
2022-12-12T11:38:52.478Z,7.15
2022-12-12T11:41:19.379Z,8.75
2022-12-12T11:43:48.896Z,7.25
2022-12-12T11:46:15.665Z,6.43
2022-12-12T11:48:51.601Z,6.35
2022-12-12T11:51:38.777Z,9.30
2022-12-12T11:54:19.993Z,7.45
2022-12-12T11:56:57.799Z,7.45
2022-12-12T11:59:42.139Z,6.97
2022-12-12T12:02:17.912Z,8.38
2022-12-12T12:05:27.238Z,6.45
2022-12-12T12:08:30.741Z,8.45
2022-12-12T12:11:27.191Z,6.68
2022-12-12T12:14:21.249Z,7.18
2022-12-12T12:17:33.481Z,8.68
2022-12-12T12:20:00.149Z,7.65
2022-12-12T12:22:43.472Z,8.00
2022-12-12T12:25:23.256Z,12.02
2022-12-12T12:28:39.106Z,8.98
2022-12-12T12:31:42.142Z,7.75
2022-12-12T12:34:40.597Z,7.85
2022-12-12T12:37:39.339Z,9.10
2022-12-12T12:40:26.652Z,8.70
2022-12-12T12:43:34.382Z,7.13
2022-12-12T12:46:36.344Z,6.13
2022-12-12T12:49:14.943Z,6.53
2022-12-12T12:52:15.353Z,7.10
2022-12-12T12:54:47.690Z,7.03
2022-12-12T12:57:29.019Z,4.95
2022-12-12T13:00:05.657Z,7.18
2022-12-12T13:03:24.823Z,9.77
2022-12-12T13:06:02.574Z,8.80
2022-12-12T13:08:43.557Z,8.35
2022-12-12T13:11:22.626Z,8.13
2022-12-12T13:13:55.346Z,6.70
2022-12-12T13:16:27.087Z,8.77
2022-12-12T13:19:21.806Z,9.05
2022-12-12T13:22:06.733Z,7.38
2022-12-12T13:25:08.689Z,10.10
2022-12-12T13:27:45.964Z,8.68
2022-12-12T13:30:27.703Z,7.13
2022-12-12T13:33:14.432Z,6.18
2022-12-12T13:35:47.452Z,6.10
2022-12-12T13:38:27.208Z,8.43
2022-12-12T13:41:07.605Z,9.40
2022-12-12T13:43:34.236Z,6.40
2022-12-12T13:46:35.727Z,5.03
2022-12-12T13:49:31.312Z,7.30
2022-12-12T13:52:32.125Z,4.50
2022-12-12T13:55:13.598Z,6.32
2022-12-12T13:58:02.781Z,6.32
2022-12-12T14:00:36.161Z,6.45
2022-12-12T14:03:12.074Z,5.38
2022-12-12T14:05:53.384Z,4.82
2022-12-12T14:08:28.680Z,5.40
2022-12-12T14:11:00.947Z,6.28
2022-12-12T14:13:38.897Z,7.47
2022-12-12T14:16:19.769Z,7.07
2022-12-12T14:18:49.492Z,5.35
2022-12-12T14:21:19.720Z,6.90
2022-12-12T14:23:55.261Z,5.35
2022-12-12T14:26:29.905Z,5.93
2022-12-12T14:29:19.640Z,6.53
2022-12-12T14:31:56.187Z,6.25
2022-12-12T14:34:59.462Z,7.75
2022-12-12T14:38:05.158Z,7.30
2022-12-12T14:40:35.366Z,5.65
2022-12-12T14:43:19.832Z,5.13
2022-12-12T14:45:49.322Z,7.47
2022-12-12T14:48:28.829Z,5.43
2022-12-12T14:51:03.574Z,5.05
2022-12-12T14:53:45.528Z,5.95
2022-12-12T14:56:39.530Z,5.93
2022-12-12T14:59:12.779Z,5.40
2022-12-12T15:01:48.378Z,5.70
2022-12-12T15:04:25.738Z,4.97
2022-12-12T15:06:57.051Z,5.05
2022-12-12T15:09:25.970Z,4.93
2022-12-12T15:11:55.440Z,4.05
2022-12-12T15:14:27.520Z,5.30
2022-12-12T15:17:05.007Z,4.05
2022-12-12T15:19:44.784Z,8.70
2022-12-12T15:22:24.598Z,4.60
2022-12-12T15:24:53.349Z,3.10
2022-12-12T15:27:41.966Z,9.32
2022-12-12T15:30:30.614Z,5.63
2022-12-12T15:32:59.475Z,3.08
2022-12-12T15:35:26.761Z,2.70
2022-12-12T15:38:00.910Z,3.88
2022-12-12T15:40:35.544Z,3.85
2022-12-12T15:43:11.133Z,3.75
2022-12-12T15:45:45.062Z,3.08
2022-12-12T15:48:15.788Z,5.20
2022-12-12T15:50:42.553Z,3.17
2022-12-12T15:53:16.219Z,4.78
2022-12-12T15:55:58.789Z,4.65
2022-12-12T15:58:39.719Z,2.85
2022-12-12T16:01:21.227Z,3.63
2022-12-12T16:04:21.633Z,3.58
2022-12-12T16:06:49.383Z,3.55
2022-12-12T16:09:26.778Z,3.00
2022-12-12T16:11:58.329Z,2.75
2022-12-12T16:14:25.024Z,2.70
2022-12-12T16:17:20.698Z,2.58
2022-12-12T16:19:56.473Z,3.03
2022-12-12T16:22:47.804Z,3.88
2022-12-12T16:25:32.696Z,2.08
2022-12-12T16:28:24.738Z,3.72
2022-12-12T16:30:59.704Z,2.22
2022-12-12T16:33:36.543Z,2.45
2022-12-12T16:36:13.204Z,1.90
2022-12-12T16:38:40.946Z,2.17
2022-12-12T16:41:17.749Z,2.00
2022-12-12T16:43:45.203Z,2.38
2022-12-12T16:46:29.849Z,3.03
2022-12-12T16:49:03.421Z,2.58
2022-12-12T16:51:34.089Z,2.80
2022-12-12T16:54:01.239Z,2.42
2022-12-12T16:56:28.055Z,2.10
2022-12-12T16:58:56.252Z,3.38
2022-12-12T17:01:23.619Z,2.33
2022-12-12T17:03:51.565Z,2.50
2022-12-12T17:06:18.353Z,2.78
2022-12-12T17:08:45.094Z,1.48
2022-12-12T17:11:13.357Z,3.97
2022-12-12T17:13:48.254Z,2.42
2022-12-12T17:16:15.325Z,1.33
2022-12-12T17:18:42.175Z,2.05
2022-12-12T17:21:09.117Z,2.20
2022-12-12T17:23:35.893Z,2.90
2022-12-12T17:26:04.975Z,1.77
2022-12-12T17:28:34.636Z,2.97
2022-12-12T17:31:02.608Z,2.00
2022-12-12T17:33:29.434Z,2.70
2022-12-12T17:36:01.108Z,2.22
2022-12-12T17:38:28.407Z,2.92
2022-12-12T17:40:56.879Z,3.78
2022-12-12T17:43:26.231Z,2.10
2022-12-12T17:46:05.487Z,2.05
2022-12-12T17:48:35.686Z,2.67
2022-12-12T17:51:06.461Z,1.77
2022-12-12T17:53:38.108Z,2.08
2022-12-12T17:56:10.252Z,1.88
2022-12-12T18:01:10.562Z,1.63
2022-12-12T18:03:37.421Z,1.85
2022-12-12T18:06:04.518Z,1.40
2022-12-12T18:08:31.471Z,1.67
2022-12-12T18:10:58.429Z,2.42
2022-12-12T18:13:25.253Z,1.98
2022-12-12T18:15:59.240Z,2.20
2022-12-12T18:18:27.718Z,1.35
2022-12-12T18:20:54.563Z,3.00
2022-12-12T18:23:21.567Z,2.33
2022-12-12T18:25:48.350Z,2.50
2022-12-12T18:28:15.149Z,2.05
2022-12-12T18:30:42.621Z,1.90
2022-12-12T18:33:10.347Z,1.30
2022-12-12T18:35:37.321Z,1.65
2022-12-12T18:38:04.093Z,1.42
2022-12-12T18:40:31.183Z,1.25
2022-12-12T18:42:57.941Z,1.48
2022-12-12T18:45:24.700Z,2.80
2022-12-12T18:47:51.594Z,2.20
2022-12-12T18:50:19.105Z,1.73
2022-12-12T18:52:45.870Z,1.83
2022-12-12T18:55:12.685Z,3.35
2022-12-12T18:57:39.415Z,1.67
2022-12-12T19:00:07.465Z,2.03
2022-12-12T19:02:38.665Z,2.95
2022-12-12T19:05:06.950Z,2.43
2022-12-12T19:07:33.889Z,1.95
2022-12-12T19:10:00.749Z,1.67
2022-12-12T19:12:27.494Z,1.88
2022-12-12T19:17:41.445Z,1.05
2022-12-12T19:20:08.834Z,2.58
2022-12-12T19:22:50.779Z,2.42
2022-12-12T19:25:18.245Z,1.40
2022-12-12T19:27:45.843Z,1.90
2022-12-12T19:30:14.757Z,1.63
2022-12-12T19:32:42.338Z,1.80
2022-12-12T19:35:10.105Z,5.88
2022-12-12T19:37:38.903Z,2.30
2022-12-12T19:40:06.462Z,2.05
2022-12-12T19:42:33.210Z,2.13
2022-12-12T19:45:00.045Z,2.42
2022-12-12T19:47:27.432Z,3.80
2022-12-12T19:49:54.187Z,1.60
2022-12-12T19:52:21.067Z,2.97
2022-12-12T19:54:47.770Z,2.17
2022-12-12T19:57:14.618Z,3.03
2022-12-12T19:59:42.680Z,2.20
2022-12-12T20:02:11.782Z,3.38
2022-12-12T20:04:39.493Z,2.75
2022-12-12T20:07:06.304Z,4.53
2022-12-12T20:09:35.629Z,1.50
2022-12-12T20:12:02.604Z,3.15
2022-12-12T20:14:33.843Z,2.30
2022-12-12T20:17:03.037Z,2.35
2022-12-12T20:19:30.818Z,3.40
2022-12-12T20:22:01.260Z,3.65
2022-12-12T20:24:29.142Z,1.98
2022-12-12T20:26:57.101Z,2.30
2022-12-12T20:29:23.885Z,1.58
2022-12-12T20:31:51.369Z,1.95
2022-12-12T20:34:25.039Z,1.77
2022-12-12T20:36:55.128Z,2.42
2022-12-12T20:39:22.404Z,3.17
2022-12-12T20:41:53.282Z,1.95
2022-12-12T20:44:20.016Z,1.55
2022-12-12T20:46:47.457Z,2.95
2022-12-12T20:49:17.777Z,2.45
2022-12-12T20:52:01.212Z,2.30
2022-12-12T20:54:29.613Z,1.75
2022-12-12T20:56:58.505Z,3.33
2022-12-12T20:59:25.905Z,1.73
2022-12-12T21:01:53.115Z,4.22
2022-12-12T21:04:20.882Z,2.08
2022-12-12T21:06:48.708Z,3.72
2022-12-12T21:09:23.325Z,1.95
2022-12-12T21:11:53.779Z,1.80
2022-12-12T21:14:20.635Z,2.47
2022-12-12T21:16:47.649Z,2.00
2022-12-12T21:19:16.047Z,1.63
2022-12-12T21:21:43.931Z,2.00
2022-12-12T21:24:16.223Z,3.08
2022-12-12T21:26:44.018Z,2.25
2022-12-12T21:29:10.821Z,2.85
2022-12-12T21:31:50.240Z,2.85
2022-12-12T21:34:21.421Z,2.45
2022-12-12T21:36:52.125Z,1.95
2022-12-12T21:39:20.319Z,3.65
2022-12-12T21:41:47.395Z,1.95
2022-12-12T21:44:14.196Z,1.60
2022-12-12T21:46:42.140Z,2.50
2022-12-12T21:49:28.026Z,1.85
2022-12-12T21:52:05.816Z,1.52
2022-12-12T21:54:32.899Z,2.45
2022-12-12T21:57:00.557Z,2.95
2022-12-12T21:59:28.482Z,1.17
2022-12-12T22:02:00.477Z,1.40
2022-12-12T22:04:28.260Z,2.75
2022-12-12T22:06:57.199Z,1.45
2022-12-12T22:09:24.306Z,3.58
2022-12-12T22:11:52.429Z,2.97
2022-12-12T22:14:30.568Z,1.90
2022-12-12T22:16:59.521Z,2.35
2022-12-12T22:19:26.326Z,1.92
2022-12-12T22:21:53.094Z,1.88
2022-12-12T22:24:19.888Z,3.58
2022-12-12T22:26:49.457Z,3.03
2022-12-12T22:29:19.517Z,1.92
2022-12-12T22:31:46.747Z,2.95
2022-12-12T22:34:16.546Z,2.25
2022-12-12T22:36:44.893Z,2.83
2022-12-12T22:39:17.000Z,4.15
2022-12-12T22:41:44.564Z,1.83
2022-12-12T22:44:16.032Z,3.60
2022-12-12T22:46:47.811Z,3.65
2022-12-12T22:51:44.223Z,2.38
2022-12-12T22:54:11.386Z,2.58
2022-12-12T22:56:39.377Z,2.58
2022-12-12T22:59:07.718Z,2.03
2022-12-12T23:01:34.764Z,2.55
2022-12-12T23:04:01.869Z,2.80
2022-12-12T23:06:32.236Z,2.63
2022-12-12T23:09:09.312Z,2.38
2022-12-12T23:11:36.831Z,2.78
2022-12-12T23:14:10.702Z,1.83
2022-12-12T23:16:38.009Z,2.00
2022-12-12T23:19:06.798Z,1.65
2022-12-12T23:21:36.056Z,3.50
2022-12-12T23:24:04.609Z,2.30
2022-12-12T23:26:33.578Z,2.80
2022-12-12T23:29:00.507Z,1.52
2022-12-12T23:31:31.634Z,2.00
2022-12-12T23:34:02.212Z,1.73
2022-12-12T23:36:29.650Z,1.92
2022-12-12T23:38:59.271Z,3.95
2022-12-12T23:41:27.831Z,2.30
2022-12-12T23:43:55.969Z,1.98
2022-12-12T23:46:29.776Z,2.47
2022-12-12T23:49:20.519Z,2.20
2022-12-12T23:51:51.465Z,3.38
2022-12-12T23:54:27.663Z,1.48
2022-12-12T23:56:55.207Z,2.63
2022-12-12T23:59:22.186Z,2.95
